Time;durP1;ratioP1;P1;durP2;ratioP2;P2;SDS_P1;SDS_P2;PMS_P1;PMS_P2;Temp;Humidity;BMP_temperature;BMP_pressure;BME280_temperature;BME280_humidity;BME280_pressure;Samples;Min_cycle;Max_cycle;Signal;HPM_P1;HPM_P2
2023/10/14 00:01:04;;;;;;;8.87;4.73;;;19.40;99.90;;;;;;5106097;28;20747;-66
2023/10/14 00:03:32;;;;;;;7.33;4.70;;;19.40;99.90;;;;;;5106492;28;20210;-66
2023/10/14 00:06:05;;;;;;;7.50;4.77;;;19.40;99.90;;;;;;5106100;28;20232;-66
2023/10/14 00:08:34;;;;;;;6.27;4.87;;;19.30;99.90;;;;;;5106645;28;20190;-65
2023/10/14 00:11:04;;;;;;;7.43;4.90;;;19.30;99.90;;;;;;5106107;28;20640;-68
2023/10/14 00:13:35;;;;;;;8.73;4.27;;;19.20;99.90;;;;;;5106390;28;20258;-67
2023/10/14 00:16:07;;;;;;;9.83;4.13;;;19.10;99.90;;;;;;5106157;28;20214;-67
2023/10/14 00:18:35;;;;;;;4.90;4.13;;;19.20;99.90;;;;;;5106048;28;20198;-67
2023/10/14 00:21:02;;;;;;;8.13;4.37;;;19.30;99.90;;;;;;5105732;28;20468;-66
2023/10/14 00:23:32;;;;;;;7.47;4.33;;;19.40;99.90;;;;;;5105627;28;20209;-66
2023/10/14 00:26:00;;;;;;;6.27;3.97;;;19.50;99.90;;;;;;5098017;28;20229;-67
2023/10/14 00:28:28;;;;;;;5.67;4.20;;;19.60;99.90;;;;;;5085384;28;20217;-66
2023/10/14 00:30:55;;;;;;;4.73;3.73;;;19.60;99.90;;;;;;5085113;28;20206;-67
2023/10/14 00:33:24;;;;;;;10.97;3.97;;;19.60;99.90;;;;;;5085325;28;20211;-66
2023/10/14 00:35:55;;;;;;;4.73;4.13;;;19.70;99.90;;;;;;5085082;28;20239;-67
2023/10/14 00:38:23;;;;;;;5.30;3.70;;;19.70;99.90;;;;;;5085826;28;20638;-67
2023/10/14 00:40:52;;;;;;;7.53;3.67;;;19.80;99.90;;;;;;5085844;28;20242;-66
2023/10/14 00:43:20;;;;;;;8.07;4.23;;;19.80;99.90;;;;;;5085221;28;20576;-66
2023/10/14 00:45:49;;;;;;;6.43;3.70;;;19.90;99.90;;;;;;5087896;28;20246;-66
2023/10/14 00:48:19;;;;;;;6.30;3.83;;;19.90;99.90;;;;;;5105931;28;20214;-67
2023/10/14 00:50:47;;;;;;;7.30;3.57;;;19.90;99.90;;;;;;5105817;28;20194;-67
2023/10/14 00:53:15;;;;;;;6.33;3.20;;;19.90;99.90;;;;;;5090640;28;20311;-66
2023/10/14 00:55:54;;;;;;;12.47;4.03;;;20.10;99.90;;;;;;5085054;28;20293;-66
2023/10/14 00:58:24;;;;;;;5.83;3.73;;;20.10;99.90;;;;;;5085333;28;20194;-67
2023/10/14 01:01:00;;;;;;;6.83;3.30;;;20.10;99.90;;;;;;5084990;28;20207;-67
2023/10/14 01:03:30;;;;;;;5.53;4.00;;;20.00;99.90;;;;;;5084791;28;20190;-66
2023/10/14 01:05:57;;;;;;;5.77;3.50;;;20.00;99.90;;;;;;5085031;28;20234;-66
2023/10/14 01:08:25;;;;;;;7.53;3.40;;;20.00;99.90;;;;;;5085290;28;20943;-67
2023/10/14 01:10:52;;;;;;;6.40;3.63;;;20.00;99.90;;;;;;5085069;28;20750;-67
2023/10/14 01:13:22;;;;;;;4.90;3.60;;;20.00;99.90;;;;;;5085216;28;20662;-66
2023/10/14 01:16:01;;;;;;;9.33;3.90;;;19.90;99.90;;;;;;5088027;28;20220;-67
2023/10/14 01:18:28;;;;;;;5.63;3.83;;;19.90;99.90;;;;;;5104942;28;20551;-67
2023/10/14 01:20:57;;;;;;;6.97;3.87;;;19.90;99.90;;;;;;5105334;28;20297;-66
2023/10/14 01:23:26;;;;;;;6.37;3.33;;;19.90;99.90;;;;;;5105544;28;20210;-67
2023/10/14 01:25:53;;;;;;;4.90;3.97;;;19.80;99.90;;;;;;5105456;28;20294;-66
2023/10/14 01:28:29;;;;;;;5.90;3.47;;;19.70;99.90;;;;;;5105596;28;20287;-66
2023/10/14 01:31:30;;;;;;;7.00;3.70;;;19.70;99.90;;;;;;5104995;28;20198;-67
2023/10/14 01:33:57;;;;;;;6.83;3.60;;;19.70;99.90;;;;;;5104802;28;20209;-66
2023/10/14 01:36:32;;;;;;;8.90;4.13;;;19.60;99.90;;;;;;5107609;28;20249;-66
2023/10/14 01:39:06;;;;;;;11.27;4.00;;;19.60;99.90;;;;;;5108622;28;20196;-67
2023/10/14 01:41:34;;;;;;;10.73;3.77;;;19.50;99.90;;;;;;5108874;28;20523;-66
2023/10/14 01:44:05;;;;;;;8.37;4.13;;;19.40;99.90;;;;;;5108576;28;20580;-67
2023/10/14 01:46:34;;;;;;;8.40;3.73;;;19.40;99.90;;;;;;5108953;27;20218;-67
2023/10/14 01:49:10;;;;;;;8.27;3.23;;;19.40;99.90;;;;;;5097240;27;20206;-66
2023/10/14 01:51:37;;;;;;;8.87;3.67;;;19.40;99.90;;;;;;5088668;28;20600;-66
2023/10/14 01:54:07;;;;;;;6.93;3.73;;;19.30;99.90;;;;;;5088634;28;20242;-66
2023/10/14 01:56:34;;;;;;;11.13;3.73;;;19.30;99.90;;;;;;5092067;28;20237;-67
2023/10/14 01:59:02;;;;;;;6.67;3.77;;;19.30;99.90;;;;;;5108759;28;20210;-66
2023/10/14 02:01:34;;;;;;;7.67;3.93;;;19.30;99.90;;;;;;5108681;28;20202;-67
2023/10/14 02:04:02;;;;;;;5.73;3.70;;;19.30;99.90;;;;;;5108480;28;20193;-67
2023/10/14 02:06:30;;;;;;;5.83;3.50;;;19.30;99.90;;;;;;5108629;28;20244;-66
2023/10/14 02:09:00;;;;;;;6.40;3.27;;;19.30;99.90;;;;;;5108818;28;20254;-67
2023/10/14 02:11:34;;;;;;;7.17;4.13;;;19.30;99.90;;;;;;5108553;28;20890;-67
2023/10/14 02:14:06;;;;;;;4.13;3.63;;;19.30;99.90;;;;;;5108548;28;20236;-67
2023/10/14 02:16:40;;;;;;;5.20;3.73;;;19.30;99.90;;;;;;5108500;28;20206;-66
2023/10/14 02:19:18;;;;;;;6.67;3.53;;;19.30;99.90;;;;;;5108475;28;20194;-66
2023/10/14 02:21:57;;;;;;;5.30;3.57;;;19.30;99.90;;;;;;5108652;28;20627;-66
2023/10/14 02:24:25;;;;;;;6.33;3.50;;;19.30;99.90;;;;;;5108408;28;20674;-66
2023/10/14 02:26:53;;;;;;;6.37;4.23;;;19.30;99.90;;;;;;5093230;28;20241;-67
2023/10/14 02:29:23;;;;;;;4.50;3.60;;;19.30;99.90;;;;;;5088057;28;20297;-67
2023/10/14 02:31:51;;;;;;;10.47;3.80;;;19.40;99.90;;;;;;5087967;28;20218;-66
2023/10/14 02:34:18;;;;;;;6.40;3.90;;;19.40;99.90;;;;;;5087861;28;20213;-66
2023/10/14 02:36:49;;;;;;;5.23;3.63;;;19.40;99.90;;;;;;5087825;28;20673;-66
2023/10/14 02:39:17;;;;;;;3.93;3.40;;;19.40;99.90;;;;;;5108079;28;20648;-66
2023/10/14 02:41:45;;;;;;;4.10;3.60;;;19.40;99.90;;;;;;5107855;28;20309;-66
2023/10/14 02:44:28;;;;;;;5.53;3.67;;;19.50;99.90;;;;;;5105217;28;20722;-66
2023/10/14 02:47:01;;;;;;;5.13;3.50;;;19.50;99.90;;;;;;5098917;28;20226;-66
2023/10/14 02:49:34;;;;;;;4.83;3.33;;;19.60;99.90;;;;;;5107138;28;20281;-67
2023/10/14 02:52:08;;;;;;;10.20;3.73;;;19.70;99.90;;;;;;5107442;28;20334;-67
2023/10/14 02:54:35;;;;;;;5.63;3.70;;;19.80;99.90;;;;;;5088923;27;20221;-67
2023/10/14 02:57:12;;;;;;;4.83;3.63;;;19.80;99.90;;;;;;5087365;28;20207;-66
2023/10/14 02:59:44;;;;;;;5.70;3.57;;;19.90;99.90;;;;;;5087277;28;20210;-67
2023/10/14 03:02:16;;;;;;;8.63;3.93;;;20.10;99.90;;;;;;5087317;28;20241;-66
2023/10/14 03:04:55;;;;;;;4.10;3.30;;;20.10;99.90;;;;;;5086961;28;20191;-67
2023/10/14 03:07:23;;;;;;;4.60;3.43;;;20.00;99.90;;;;;;5086743;28;20727;-67
2023/10/14 03:09:51;;;;;;;6.73;3.50;;;20.00;99.90;;;;;;5086858;28;20215;-66
2023/10/14 03:12:19;;;;;;;9.40;3.57;;;20.00;99.90;;;;;;5094652;28;20222;-67
2023/10/14 03:14:49;;;;;;;5.03;4.13;;;20.00;99.90;;;;;;5107061;28;20217;-67
2023/10/14 03:17:24;;;;;;;3.57;3.20;;;20.20;99.90;;;;;;5106663;28;20568;-66
2023/10/14 03:19:53;;;;;;;4.30;3.20;;;20.10;99.90;;;;;;5106980;28;20720;-66
2023/10/14 03:22:26;;;;;;;4.47;3.63;;;20.10;99.90;;;;;;5107005;28;20217;-66
2023/10/14 03:25:02;;;;;;;6.93;3.53;;;20.10;99.90;;;;;;5107018;28;20217;-67
2023/10/14 03:27:32;;;;;;;4.17;3.77;;;20.10;99.90;;;;;;5087132;28;20222;-66
2023/10/14 03:30:00;;;;;;;8.27;3.77;;;20.10;99.90;;;;;;5086916;28;20585;-66
2023/10/14 03:32:32;;;;;;;5.60;3.77;;;20.10;99.90;;;;;;5086207;28;20230;-66
2023/10/14 03:35:09;;;;;;;4.03;3.60;;;20.10;99.90;;;;;;5103245;28;20198;-67
2023/10/14 03:37:40;;;;;;;5.47;4.10;;;20.10;99.90;;;;;;5106769;28;20198;-66
2023/10/14 03:42:54;;;;;;;4.37;3.37;;;20.00;99.90;;;;;;5106492;28;20573;-67
2023/10/14 03:45:28;;;;;;;6.43;4.07;;;20.10;99.90;;;;;;5106434;27;20233;-66
2023/10/14 03:48:00;;;;;;;9.73;4.17;;;20.10;99.90;;;;;;5085695;28;20222;-66
2023/10/14 03:50:28;;;;;;;4.70;4.23;;;20.20;99.90;;;;;;5101155;28;20271;-67
2023/10/14 03:52:55;;;;;;;6.13;4.00;;;20.20;99.90;;;;;;5105939;28;20234;-67
2023/10/14 03:55:24;;;;;;;7.37;4.67;;;20.20;99.90;;;;;;5106059;28;20237;-67
2023/10/14 03:57:55;;;;;;;7.53;4.43;;;20.10;99.90;;;;;;5104911;28;20202;-66
2023/10/14 04:00:36;;;;;;;9.43;4.60;;;20.30;99.90;;;;;;5105987;28;20754;-66
2023/10/14 04:03:11;;;;;;;6.03;3.93;;;20.30;99.90;;;;;;5106220;28;20240;-66
2023/10/14 04:05:41;;;;;;;6.30;4.37;;;20.20;99.90;;;;;;5106086;28;20533;-66
2023/10/14 04:08:09;;;;;;;6.87;4.53;;;20.20;99.90;;;;;;5101234;28;21084;-66
2023/10/14 04:10:43;;;;;;;5.43;4.80;;;20.20;99.90;;;;;;5086045;28;20211;-67
2023/10/14 04:13:13;;;;;;;4.87;3.87;;;20.20;99.90;;;;;;5085479;28;20222;-66
2023/10/14 04:15:50;;;;;;;6.63;4.67;;;20.20;99.90;;;;;;5088021;28;20283;-66
2023/10/14 04:18:24;;;;;;;5.37;4.37;;;20.20;99.90;;;;;;5106634;28;20223;-66
2023/10/14 04:21:12;;;;;;;7.77;4.33;;;20.10;99.90;;;;;;5106122;28;20190;-67
2023/10/14 04:23:59;;;;;;;11.03;5.07;;;20.10;99.90;;;;;;5086001;28;20314;-66
2023/10/14 04:26:31;;;;;;;8.37;4.50;;;20.20;99.90;;;;;;5085744;28;20194;-66
2023/10/14 04:28:59;;;;;;;7.63;4.30;;;20.10;99.90;;;;;;5085377;28;20203;-67
2023/10/14 04:31:39;;;;;;;7.80;4.40;;;20.10;99.90;;;;;;5103474;28;20641;-66
2023/10/14 04:34:08;;;;;;;6.23;3.97;;;20.10;99.90;;;;;;5105512;28;20276;-66
2023/10/14 04:36:39;;;;;;;5.70;4.47;;;20.20;99.90;;;;;;5103782;28;20269;-67
2023/10/14 04:39:14;;;;;;;7.93;4.27;;;20.20;99.90;;;;;;5085360;28;20602;-66
2023/10/14 04:42:11;;;;;;;12.37;4.47;;;20.30;99.90;;;;;;5085106;28;20959;-66
2023/10/14 04:44:45;;;;;;;12.53;5.20;;;20.30;99.90;;;;;;5085545;28;20202;-66
2023/10/14 04:47:19;;;;;;;6.03;4.47;;;20.30;99.90;;;;;;5099818;28;20229;-66
2023/10/14 04:49:51;;;;;;;6.63;4.70;;;20.20;99.90;;;;;;5106075;28;20190;-66
2023/10/14 04:52:19;;;;;;;9.77;4.40;;;20.10;99.90;;;;;;5105730;28;20859;-66
2023/10/14 04:54:53;;;;;;;10.27;5.50;;;19.80;99.90;;;;;;5105250;28;20213;-68
2023/10/14 04:57:22;;;;;;;9.30;5.37;;;19.30;99.90;;;;;;5105477;28;20209;-67
2023/10/14 04:59:55;;;;;;;8.00;5.67;;;17.60;99.90;;;;;;5104987;28;20656;-67
2023/10/14 05:02:24;;;;;;;13.27;6.20;;;17.20;99.90;;;;;;5105259;28;20610;-67
2023/10/14 05:04:52;;;;;;;9.80;6.40;;;17.00;99.90;;;;;;5105615;28;20241;-67
2023/10/14 05:07:20;;;;;;;9.20;6.43;;;16.90;99.90;;;;;;5105300;28;20320;-67
2023/10/14 05:09:56;;;;;;;8.63;5.93;;;16.80;99.90;;;;;;5106974;28;20206;-67
2023/10/14 05:12:25;;;;;;;12.27;6.33;;;16.70;99.90;;;;;;5109497;28;20230;-67
2023/10/14 05:14:55;;;;;;;10.17;6.00;;;16.70;99.90;;;;;;5109063;28;20206;-67
2023/10/14 05:17:27;;;;;;;6.60;5.03;;;16.60;99.90;;;;;;5107693;28;20609;-67
2023/10/14 05:19:59;;;;;;;5.27;4.77;;;16.60;99.90;;;;;;5089263;28;20219;-67
2023/10/14 05:22:37;;;;;;;8.47;5.27;;;16.50;99.90;;;;;;5089156;28;20252;-67
2023/10/14 05:25:15;;;;;;;7.00;4.27;;;16.50;99.90;;;;;;5089146;28;20735;-67
2023/10/14 05:27:55;;;;;;;5.90;3.83;;;16.40;99.90;;;;;;5107921;28;20301;-67
2023/10/14 05:30:23;;;;;;;2.70;2.50;;;16.40;99.90;;;;;;5109455;28;20216;-67
2023/10/14 05:32:52;;;;;;;4.10;2.73;;;16.30;99.90;;;;;;5108581;28;20241;-67
2023/10/14 05:35:22;;;;;;;4.20;1.60;;;16.20;99.90;;;;;;5108667;28;20242;-67
2023/10/14 05:37:50;;;;;;;1.23;1.23;;;16.00;99.90;;;;;;5108793;28;20205;-67
2023/10/14 05:40:21;;;;;;;1.20;1.10;;;16.00;99.90;;;;;;5108933;28;20559;-67
2023/10/14 05:42:48;;;;;;;1.63;0.97;;;15.80;99.90;;;;;;5094656;28;20264;-67
2023/10/14 05:45:15;;;;;;;0.60;0.60;;;15.90;99.90;;;;;;5088389;28;20994;-67
2023/10/14 05:47:43;;;;;;;0.63;0.63;;;15.50;99.90;;;;;;5088176;28;20718;-67
2023/10/14 05:50:15;;;;;;;0.97;0.30;;;15.20;99.90;;;;;;5088453;28;20203;-67
2023/10/14 05:52:46;;;;;;;0.73;0.50;;;15.00;99.90;;;;;;5088535;28;20684;-67
2023/10/14 05:55:14;;;;;;;0.50;0.50;;;14.90;99.90;;;;;;5088090;28;21028;-67
2023/10/14 05:57:41;;;;;;;0.70;0.57;;;14.60;99.90;;;;;;5088242;28;20673;-67
2023/10/14 06:00:21;;;;;;;0.60;0.60;;;14.40;99.90;;;;;;5087452;27;21095;-67
2023/10/14 06:02:53;;;;;;;1.27;0.50;;;14.40;99.90;;;;;;5108355;28;20671;-67
2023/10/14 06:05:23;;;;;;;0.50;0.50;;;14.50;99.90;;;;;;5108666;28;21068;-67
2023/10/14 06:07:59;;;;;;;1.00;0.87;;;14.40;99.90;;;;;;5108328;28;20683;-67
2023/10/14 06:10:29;;;;;;;1.30;0.50;;;14.40;99.90;;;;;;5108262;28;20552;-67
2023/10/14 06:12:57;;;;;;;0.50;0.50;;;14.30;99.90;;;;;;5108273;28;20225;-67
2023/10/14 06:15:25;;;;;;;1.43;0.67;;;14.20;99.90;;;;;;5108327;28;20206;-67
2023/10/14 06:17:54;;;;;;;0.97;0.70;;;14.20;99.90;;;;;;5087848;28;20210;-67
2023/10/14 06:20:23;;;;;;;1.60;0.63;;;14.20;99.90;;;;;;5088003;28;20206;-67
2023/10/14 06:22:50;;;;;;;0.90;0.60;;;14.10;99.90;;;;;;5097090;28;20204;-67
2023/10/14 06:25:17;;;;;;;0.97;0.67;;;14.00;99.90;;;;;;5107391;28;20198;-67
2023/10/14 06:27:48;;;;;;;2.17;0.67;;;14.00;99.90;;;;;;5088218;28;20341;-67
2023/10/14 06:30:20;;;;;;;1.17;0.50;;;14.00;99.90;;;;;;5087935;28;20210;-67
2023/10/14 06:32:48;;;;;;;0.60;0.60;;;14.00;99.90;;;;;;5087993;28;20195;-67
2023/10/14 06:35:17;;;;;;;4.43;0.97;;;14.00;99.90;;;;;;5087706;28;20317;-67
2023/10/14 06:37:46;;;;;;;0.93;0.63;;;14.10;99.90;;;;;;5087446;28;20860;-67
2023/10/14 06:40:17;;;;;;;0.70;0.63;;;14.20;99.90;;;;;;5087790;28;20213;-67
2023/10/14 06:42:45;;;;;;;1.57;1.10;;;14.10;99.90;;;;;;5087483;28;20203;-67
2023/10/14 06:45:17;;;;;;;3.07;1.00;;;14.10;99.90;;;;;;5087146;28;20207;-67
2023/10/14 06:47:49;;;;;;;1.83;0.97;;;14.00;99.90;;;;;;5087149;28;20227;-67
2023/10/14 06:50:20;;;;;;;1.00;0.90;;;14.00;99.90;;;;;;5086967;28;20636;-67
2023/10/14 06:52:48;;;;;;;1.17;0.90;;;14.00;99.90;;;;;;5087484;28;20191;-67
2023/10/14 06:55:21;;;;;;;1.33;0.90;;;14.00;99.90;;;;;;5087263;28;20576;-67
2023/10/14 06:57:53;;;;;;;1.13;1.00;;;14.10;99.90;;;;;;5099236;28;20305;-67
2023/10/14 07:00:29;;;;;;;1.27;0.90;;;14.00;99.90;;;;;;5107749;28;20194;-67
2023/10/14 07:02:59;;;;;;;1.37;0.80;;;14.10;99.90;;;;;;5107226;28;20190;-66
2023/10/14 07:05:26;;;;;;;3.40;3.10;;;14.10;99.90;;;;;;5107349;28;20206;-67
2023/10/14 07:07:55;;;;;;;3.13;1.53;;;14.00;99.90;;;;;;5107031;28;20684;-67
2023/10/14 07:10:27;;;;;;;3.73;1.17;;;14.00;99.90;;;;;;5107804;28;20206;-66
2023/10/14 07:12:57;;;;;;;4.73;1.07;;;13.90;99.90;;;;;;5107611;28;20222;-66
2023/10/14 07:15:24;;;;;;;3.03;1.27;;;14.00;99.90;;;;;;5108084;28;20202;-67
2023/10/14 07:17:54;;;;;;;1.90;1.07;;;14.10;99.90;;;;;;5107069;28;20304;-67
2023/10/14 07:20:22;;;;;;;2.60;1.60;;;14.20;99.90;;;;;;5087453;28;20207;-67
2023/10/14 07:22:49;;;;;;;1.60;0.87;;;14.20;99.90;;;;;;5086605;28;20677;-67
2023/10/14 07:25:19;;;;;;;2.20;1.20;;;14.10;99.90;;;;;;5086715;28;20213;-67
2023/10/14 07:27:51;;;;;;;1.80;1.10;;;14.10;99.90;;;;;;5086791;28;20205;-67
2023/10/14 07:30:19;;;;;;;2.77;1.00;;;14.10;99.90;;;;;;5086731;28;20195;-66
2023/10/14 07:32:47;;;;;;;2.03;1.00;;;14.10;99.90;;;;;;5086341;28;20242;-67
2023/10/14 07:35:17;;;;;;;1.37;1.27;;;14.00;99.90;;;;;;5099819;28;20330;-66
2023/10/14 07:37:45;;;;;;;1.10;0.90;;;13.90;99.90;;;;;;5107019;28;20199;-67
2023/10/14 07:40:22;;;;;;;1.87;1.03;;;13.90;99.90;;;;;;5106806;28;20201;-67
2023/10/14 07:42:55;;;;;;;2.23;1.10;;;13.90;99.90;;;;;;5106522;28;20204;-66
2023/10/14 07:45:28;;;;;;;2.87;1.20;;;14.00;99.90;;;;;;5106330;28;20226;-67
2023/10/14 07:47:56;;;;;;;0.87;0.80;;;14.10;99.90;;;;;;5106240;28;20294;-67
2023/10/14 07:50:23;;;;;;;1.60;0.77;;;14.20;99.90;;;;;;5106339;28;20213;-66
2023/10/14 07:52:51;;;;;;;1.70;1.13;;;14.20;99.90;;;;;;5106339;28;20206;-66
2023/10/14 07:55:22;;;;;;;2.60;1.03;;;14.30;99.90;;;;;;5106547;27;20210;-67
2023/10/14 07:57:49;;;;;;;2.23;0.90;;;14.40;99.90;;;;;;5106606;28;20290;-66
2023/10/14 08:00:18;;;;;;;1.07;1.07;;;14.50;99.90;;;;;;5106710;28;20214;-66
2023/10/14 08:02:45;;;;;;;3.40;1.30;;;14.60;99.90;;;;;;5106506;28;20205;-66
2023/10/14 08:05:12;;;;;;;1.30;1.00;;;14.50;99.90;;;;;;5106248;28;20331;-66
2023/10/14 08:07:44;;;;;;;2.40;1.20;;;14.60;99.90;;;;;;5106093;28;20296;-66
2023/10/14 08:10:22;;;;;;;3.77;1.43;;;14.50;99.90;;;;;;5106163;28;20233;-66
2023/10/14 08:12:52;;;;;;;5.67;1.63;;;14.60;99.90;;;;;;5106231;28;20232;-66
2023/10/14 08:15:19;;;;;;;6.00;1.57;;;14.60;99.90;;;;;;5105801;28;20363;-66
2023/10/14 08:17:48;;;;;;;6.10;1.67;;;14.70;99.90;;;;;;5105787;28;20210;-66
2023/10/14 08:20:18;;;;;;;3.50;1.63;;;14.70;99.90;;;;;;5105895;28;20293;-66
2023/10/14 08:22:47;;;;;;;3.63;1.80;;;14.70;99.90;;;;;;5094870;28;20588;-66
2023/10/14 08:25:18;;;;;;;3.13;1.43;;;14.70;99.90;;;;;;5085391;28;20242;-66
2023/10/14 08:27:46;;;;;;;5.57;1.57;;;14.70;99.90;;;;;;5085554;28;20228;-66
2023/10/14 08:30:13;;;;;;;3.77;1.70;;;14.80;99.90;;;;;;5088060;28;20215;-66
2023/10/14 08:32:42;;;;;;;7.70;1.80;;;14.90;99.90;;;;;;5105799;28;20289;-66
2023/10/14 08:35:15;;;;;;;2.87;1.43;;;14.90;99.90;;;;;;5105308;28;21031;-66
2023/10/14 08:37:52;;;;;;;5.43;1.50;;;15.00;99.90;;;;;;5106044;28;20552;-66
2023/10/14 08:40:21;;;;;;;4.57;1.43;;;15.00;99.90;;;;;;5105933;28;20198;-66
2023/10/14 08:42:50;;;;;;;3.90;1.50;;;15.10;99.90;;;;;;5105997;28;20237;-66
2023/10/14 08:45:22;;;;;;;4.00;1.50;;;15.30;99.90;;;;;;5105373;28;20245;-66
2023/10/14 08:47:51;;;;;;;5.57;1.60;;;15.30;99.90;;;;;;5105472;28;20737;-66
2023/10/14 08:50:21;;;;;;;4.77;1.87;;;15.20;99.90;;;;;;5093590;28;20669;-66
2023/10/14 08:52:49;;;;;;;5.13;1.97;;;15.40;99.90;;;;;;5085411;28;20424;-66
2023/10/14 08:55:18;;;;;;;3.50;1.53;;;15.50;99.90;;;;;;5085435;28;20202;-66
2023/10/14 08:57:46;;;;;;;4.30;1.57;;;15.40;99.90;;;;;;5085472;28;20210;-66
2023/10/14 09:00:19;;;;;;;3.53;1.60;;;15.30;99.90;;;;;;5085012;28;20293;-66
2023/10/14 09:02:48;;;;;;;8.37;1.90;;;15.30;99.90;;;;;;5089646;28;20305;-66
2023/10/14 09:05:18;;;;;;;6.27;1.60;;;15.10;99.90;;;;;;5105380;28;20210;-66
2023/10/14 09:07:46;;;;;;;4.17;1.70;;;15.20;99.90;;;;;;5105250;28;20236;-66
2023/10/14 09:10:15;;;;;;;9.27;1.83;;;15.30;99.90;;;;;;5105118;28;20577;-66
2023/10/14 09:12:54;;;;;;;8.03;1.77;;;15.10;99.90;;;;;;5105574;28;20588;-66
2023/10/14 09:15:23;;;;;;;8.63;2.03;;;15.20;99.90;;;;;;5105199;28;20200;-66
2023/10/14 09:17:50;;;;;;;4.27;1.60;;;15.50;99.90;;;;;;5104289;28;20293;-66
2023/10/14 09:20:34;;;;;;;5.50;2.00;;;15.60;99.90;;;;;;5085433;28;20330;-66
2023/10/14 09:23:19;;;;;;;4.83;1.77;;;15.60;99.90;;;;;;5084767;28;20226;-66
2023/10/14 09:25:49;;;;;;;4.57;1.80;;;15.90;99.90;;;;;;5085229;28;20291;-66
2023/10/14 09:28:19;;;;;;;5.23;1.73;;;15.90;99.90;;;;;;5102848;28;20198;-66
2023/10/14 09:30:49;;;;;;;5.23;1.50;;;15.90;99.90;;;;;;5105340;28;20205;-66
2023/10/14 09:33:19;;;;;;;3.83;1.90;;;16.00;99.90;;;;;;5105129;28;20214;-65
2023/10/14 09:35:49;;;;;;;4.67;2.30;;;16.10;99.90;;;;;;5105224;28;20262;-65
2023/10/14 09:38:19;;;;;;;3.93;1.77;;;16.10;99.90;;;;;;5105270;28;20200;-65
2023/10/14 09:40:53;;;;;;;6.53;1.87;;;16.20;99.90;;;;;;5105459;28;20607;-65
2023/10/14 09:43:23;;;;;;;5.07;1.93;;;16.20;99.90;;;;;;5104631;28;20221;-65
2023/10/14 09:45:55;;;;;;;7.17;2.40;;;16.20;99.90;;;;;;5104637;28;20213;-65
2023/10/14 09:48:24;;;;;;;6.73;1.83;;;16.50;99.90;;;;;;5104865;28;20187;-65
2023/10/14 09:50:54;;;;;;;7.33;1.93;;;16.00;99.90;;;;;;5104959;28;20958;-65
2023/10/14 09:53:26;;;;;;;10.10;2.20;;;16.20;99.90;;;;;;5104879;28;20194;-65
2023/10/14 09:55:54;;;;;;;6.20;1.73;;;16.20;99.90;;;;;;5105310;28;20642;-66
2023/10/14 09:58:24;;;;;;;6.73;2.00;;;15.90;99.90;;;;;;5108485;28;20323;-65
2023/10/14 10:00:51;;;;;;;4.57;1.73;;;16.00;99.90;;;;;;5088149;28;20257;-65
2023/10/14 10:03:21;;;;;;;6.40;1.90;;;16.00;99.90;;;;;;5087917;28;20207;-65
2023/10/14 10:06:06;;;;;;;5.70;1.70;;;16.30;99.90;;;;;;5088470;28;20199;-65
2023/10/14 10:08:49;;;;;;;5.20;1.80;;;16.40;99.90;;;;;;5103301;28;20195;-67
2023/10/14 10:11:23;;;;;;;2.90;1.60;;;16.40;99.90;;;;;;5108763;28;20279;-67
2023/10/14 10:13:51;;;;;;;7.80;1.70;;;16.30;99.90;;;;;;5108664;28;20295;-67
2023/10/14 10:16:21;;;;;;;6.70;1.70;;;16.20;99.90;;;;;;5088913;28;20324;-67
2023/10/14 10:18:52;;;;;;;2.40;1.60;;;16.30;99.90;;;;;;5088108;28;20201;-65
2023/10/14 10:21:21;;;;;;;4.67;1.50;;;16.50;99.90;;;;;;5088450;28;20218;-65
2023/10/14 10:23:56;;;;;;;3.30;1.73;;;16.60;99.90;;;;;;5088052;28;20622;-65
2023/10/14 10:26:24;;;;;;;4.70;1.93;;;16.30;99.90;;;;;;5087867;28;20191;-65
2023/10/14 10:28:51;;;;;;;5.97;2.90;;;16.40;99.90;;;;;;5087705;28;20261;-65
2023/10/14 10:31:23;;;;;;;5.47;1.73;;;16.20;99.90;;;;;;5087760;28;20203;-65
2023/10/14 10:33:54;;;;;;;5.60;1.80;;;16.20;99.90;;;;;;5087370;28;20691;-65
2023/10/14 10:36:27;;;;;;;6.07;1.83;;;16.40;99.90;;;;;;5087213;28;20335;-65
2023/10/14 10:38:54;;;;;;;8.03;1.90;;;16.50;99.90;;;;;;5087573;28;20211;-66
2023/10/14 10:41:25;;;;;;;8.77;2.50;;;16.50;99.90;;;;;;5087614;28;20210;-66
2023/10/14 10:43:53;;;;;;;6.17;1.80;;;16.50;99.90;;;;;;5087321;28;20201;-66
2023/10/14 10:46:30;;;;;;;5.10;1.73;;;16.20;99.90;;;;;;5094653;28;20798;-66
2023/10/14 10:48:57;;;;;;;5.87;2.20;;;16.10;99.90;;;;;;5107045;28;20943;-67
2023/10/14 10:51:31;;;;;;;5.90;2.20;;;16.00;99.90;;;;;;5107648;27;20720;-67
2023/10/14 10:53:59;;;;;;;4.63;2.03;;;16.20;99.90;;;;;;5107976;28;20550;-67
2023/10/14 10:56:29;;;;;;;6.93;2.00;;;16.50;99.90;;;;;;5107920;28;20984;-67
2023/10/14 10:58:57;;;;;;;4.73;1.70;;;16.60;99.90;;;;;;5107821;28;20298;-67
2023/10/14 11:01:24;;;;;;;7.87;2.40;;;16.60;99.90;;;;;;5107710;28;20660;-67
2023/10/14 11:03:51;;;;;;;7.80;1.60;;;17.10;99.90;;;;;;5107560;28;20206;-67
2023/10/14 11:06:19;;;;;;;12.37;2.20;;;17.20;99.90;;;;;;5107621;28;20267;-67
2023/10/14 11:08:47;;;;;;;6.87;1.93;;;17.30;99.90;;;;;;5106961;28;20213;-67
2023/10/14 11:11:14;;;;;;;9.03;2.20;;;17.30;99.90;;;;;;5098373;28;20346;-67
2023/10/14 11:13:42;;;;;;;6.37;1.50;;;17.40;99.90;;;;;;5086836;28;20206;-67
2023/10/14 11:16:12;;;;;;;7.00;1.87;;;17.50;99.90;;;;;;5092721;28;20213;-67
2023/10/14 11:18:47;;;;;;;4.43;1.80;;;17.30;99.90;;;;;;5106490;28;20210;-67
2023/10/14 11:21:15;;;;;;;10.73;1.97;;;17.40;99.90;;;;;;5086460;28;20700;-67
2023/10/14 11:23:43;;;;;;;6.97;1.80;;;17.30;99.90;;;;;;5087018;28;20253;-67
2023/10/14 11:26:15;;;;;;;5.17;1.83;;;17.60;99.90;;;;;;5086257;28;20552;-67
2023/10/14 11:28:45;;;;;;;4.87;1.70;;;17.70;99.90;;;;;;5086489;28;20625;-67
2023/10/14 11:31:12;;;;;;;3.70;1.77;;;17.50;99.90;;;;;;5086706;28;20933;-67
2023/10/14 11:33:39;;;;;;;3.40;1.53;;;17.40;99.90;;;;;;5086518;28;20301;-67
2023/10/14 11:36:07;;;;;;;3.60;1.90;;;17.20;99.90;;;;;;5085975;28;20330;-67
2023/10/14 11:38:42;;;;;;;5.00;1.50;;;17.10;99.90;;;;;;5093849;28;20297;-67
2023/10/14 11:41:10;;;;;;;5.70;1.83;;;16.80;99.90;;;;;;5106497;28;20190;-67
2023/10/14 11:43:43;;;;;;;5.60;1.70;;;16.60;99.90;;;;;;5106560;28;20209;-67
2023/10/14 11:46:10;;;;;;;4.07;1.40;;;16.60;99.90;;;;;;5106477;28;20206;-67
2023/10/14 11:48:38;;;;;;;6.43;2.07;;;16.70;99.90;;;;;;5105995;27;20301;-67
2023/10/14 11:51:11;;;;;;;10.63;2.47;;;16.90;99.90;;;;;;5106436;28;20230;-67
2023/10/14 11:53:44;;;;;;;5.97;2.20;;;17.00;99.90;;;;;;5106702;28;20243;-67
2023/10/14 11:56:13;;;;;;;8.57;2.40;;;17.30;99.90;;;;;;5105921;28;20652;-67
2023/10/14 11:58:41;;;;;;;8.30;2.57;;;17.60;99.90;;;;;;5106174;28;20296;-67
2023/10/14 12:01:10;;;;;;;8.10;2.10;;;17.80;99.90;;;;;;5089987;28;20215;-67
2023/10/14 12:03:37;;;;;;;7.53;1.70;;;17.70;99.90;;;;;;5085761;28;20775;-67
2023/10/14 12:06:04;;;;;;;5.33;2.20;;;18.00;99.90;;;;;;5085921;28;20241;-67
2023/10/14 12:08:32;;;;;;;8.70;2.13;;;17.70;99.90;;;;;;5102979;28;20293;-67
2023/10/14 12:11:03;;;;;;;6.00;2.10;;;17.50;99.90;;;;;;5106171;28;20238;-66
2023/10/14 12:13:31;;;;;;;6.93;1.83;;;17.40;99.90;;;;;;5106159;28;20198;-67
2023/10/14 12:16:04;;;;;;;6.37;2.30;;;17.70;99.90;;;;;;5106018;28;20736;-67
2023/10/14 12:18:34;;;;;;;8.80;2.40;;;17.80;99.90;;;;;;5105437;28;20201;-67
2023/10/14 12:21:03;;;;;;;10.20;2.13;;;18.10;99.90;;;;;;5105903;28;20234;-67
2023/10/14 12:23:31;;;;;;;6.30;2.30;;;17.90;99.90;;;;;;5106040;28;20214;-67
2023/10/14 12:26:00;;;;;;;5.47;2.13;;;18.00;99.90;;;;;;5099166;28;20242;-67
2023/10/14 12:28:30;;;;;;;6.63;2.03;;;18.20;99.90;;;;;;5086188;28;20207;-67
2023/10/14 12:31:00;;;;;;;7.13;2.00;;;17.90;99.90;;;;;;5085767;28;20238;-67
2023/10/14 12:33:31;;;;;;;5.20;1.97;;;17.90;99.90;;;;;;5085872;28;20294;-67
2023/10/14 12:35:58;;;;;;;6.13;2.10;;;17.80;99.90;;;;;;5102837;28;20325;-67
2023/10/14 12:38:27;;;;;;;6.17;2.03;;;18.00;99.90;;;;;;5105905;28;20205;-67
2023/10/14 12:40:54;;;;;;;8.87;2.37;;;17.80;99.90;;;;;;5106145;28;20250;-67
2023/10/14 12:43:28;;;;;;;4.37;1.67;;;17.60;99.90;;;;;;5105676;28;20297;-67
2023/10/14 12:46:09;;;;;;;4.87;1.77;;;17.60;99.90;;;;;;5105646;28;20210;-67
2023/10/14 12:48:40;;;;;;;5.60;1.90;;;17.50;99.90;;;;;;5105693;28;20212;-67
2023/10/14 12:51:11;;;;;;;8.43;2.30;;;17.50;99.90;;;;;;5105494;28;20718;-67
2023/10/14 12:53:38;;;;;;;5.70;1.73;;;17.20;99.90;;;;;;5105870;28;20194;-67
2023/10/14 12:56:07;;;;;;;6.63;1.80;;;17.10;99.90;;;;;;5100624;28;20297;-67
2023/10/14 12:58:35;;;;;;;5.50;1.73;;;17.10;99.90;;;;;;5085325;28;20211;-67
2023/10/14 13:01:06;;;;;;;5.67;1.63;;;17.00;99.90;;;;;;5085332;28;20206;-67
2023/10/14 13:03:35;;;;;;;6.00;1.60;;;17.00;99.90;;;;;;5085481;28;20313;-67
2023/10/14 13:06:06;;;;;;;9.63;2.17;;;17.00;99.90;;;;;;5085141;28;20221;-67